Time;durP1;ratioP1;P1;durP2;ratioP2;P2;SDS_P1;SDS_P2;PMS_P1;PMS_P2;Temp;Humidity;BMP_temperature;BMP_pressure;BME280_temperature;BME280_humidity;BME280_pressure;Samples;Min_cycle;Max_cycle;Signal;HPM_P1;HPM_P2
2022/12/05 00:01:10;;;;;;;22.73;21.33;;;;;;;10.03;76.38;99615.22;5075277;28;20048;-65
2022/12/05 00:03:36;;;;;;;17.80;16.50;;;;;;;9.94;76.46;99594.69;5076036;28;20049;-65
2022/12/05 00:06:04;;;;;;;16.87;15.77;;;;;;;9.88;75.63;99593.09;5074987;28;20056;-65
2022/12/05 00:08:31;;;;;;;18.87;17.27;;;;;;;9.92;75.81;99606.16;5071918;28;20049;-64
2022/12/05 00:10:57;;;;;;;17.73;16.63;;;;;;;9.87;75.42;99597.84;5074762;28;20060;-66
2022/12/05 00:13:25;;;;;;;16.00;15.00;;;;;;;9.99;76.04;99591.03;5075984;28;20048;-74
2022/12/05 00:15:51;;;;;;;17.93;16.73;;;;;;;9.99;76.25;99594.63;5075894;28;20385;-77
2022/12/05 00:18:18;;;;;;;15.97;15.17;;;;;;;9.98;76.32;99590.16;5075089;28;20408;-72
2022/12/05 00:20:47;;;;;;;17.03;15.93;;;;;;;9.96;76.02;99604.41;5076102;28;20080;-73
2022/12/05 00:23:14;;;;;;;17.90;16.67;;;;;;;9.87;76.10;99574.72;5072191;28;20384;-71
2022/12/05 00:25:40;;;;;;;32.37;30.63;;;;;;;9.97;76.55;99596.88;5070513;28;20044;-70
2022/12/05 00:28:07;;;;;;;17.90;16.63;;;;;;;10.02;76.58;99613.56;5068883;28;20529;-73
2022/12/05 00:30:34;;;;;;;17.77;16.67;;;;;;;9.99;75.87;99596.59;5075060;28;20044;-71
2022/12/05 00:33:01;;;;;;;18.07;16.90;;;;;;;10.03;75.59;99592.91;5073430;28;20056;-71
2022/12/05 00:35:28;;;;;;;16.67;15.77;;;;;;;10.12;76.07;99599.47;5073507;28;20052;-70
2022/12/05 00:37:55;;;;;;;16.67;15.57;;;;;;;10.21;75.94;99589.28;5073681;28;20044;-70
2022/12/05 00:40:22;;;;;;;17.50;16.60;;;;;;;10.26;75.41;99601.53;5074061;28;20049;-71
2022/12/05 00:42:49;;;;;;;16.43;15.53;;;;;;;10.31;75.49;99599.50;5071837;28;20048;-71
2022/12/05 00:45:18;;;;;;;16.13;15.23;;;;;;;10.40;76.30;99585.69;5073961;28;20051;-70
2022/12/05 00:47:44;;;;;;;16.67;15.50;;;;;;;10.44;75.68;99595.13;5073473;28;20052;-71
2022/12/05 00:50:11;;;;;;;14.33;13.57;;;;;;;10.39;75.30;99584.88;5072727;28;20055;-71
2022/12/05 00:52:38;;;;;;;28.77;27.37;;;;;;;10.34;74.50;99586.91;5067421;28;20052;-66
2022/12/05 00:55:05;;;;;;;14.80;14.10;;;;;;;10.41;74.91;99582.59;5067962;28;20075;-66
2022/12/05 00:57:32;;;;;;;17.07;16.07;;;;;;;10.44;74.71;99584.78;5056402;28;20055;-67
2022/12/05 00:59:59;;;;;;;16.40;15.27;;;;;;;10.40;74.54;99580.94;5055226;28;20142;-70
2022/12/05 01:02:25;;;;;;;16.63;15.60;;;;;;;10.35;74.56;99580.19;5074437;28;20044;-68
2022/12/05 01:04:53;;;;;;;16.07;14.93;;;;;;;10.43;74.55;99585.91;5074388;28;20403;-67
2022/12/05 01:07:20;;;;;;;16.83;15.83;;;;;;;10.39;73.75;99586.81;5073854;28;20052;-67
2022/12/05 01:09:46;;;;;;;17.40;16.10;;;;;;;10.45;74.49;99577.22;5074682;28;20051;-71
2022/12/05 01:12:13;;;;;;;17.67;16.67;;;;;;;10.55;74.98;99574.25;5074200;28;20052;-72
2022/12/05 01:14:40;;;;;;;18.20;17.20;;;;;;;10.42;74.76;99563.88;5074361;28;20060;-73
2022/12/05 01:17:07;;;;;;;17.50;16.37;;;;;;;10.47;74.06;99583.34;5074048;28;20098;-72
2022/12/05 01:19:33;;;;;;;17.63;16.40;;;;;;;10.50;75.05;99568.78;5074598;28;20131;-71
2022/12/05 01:22:00;;;;;;;16.37;15.57;;;;;;;10.40;74.77;99558.59;5074154;28;20044;-71
2022/12/05 01:24:28;;;;;;;17.87;16.67;;;;;;;10.54;74.84;99563.41;5074530;28;20059;-72
2022/12/05 01:26:56;;;;;;;17.13;15.93;;;;;;;10.48;73.88;99559.03;5071647;28;20044;-70
2022/12/05 01:29:24;;;;;;;17.63;16.60;;;;;;;10.51;74.17;99544.47;5054236;28;20044;-68
2022/12/05 01:31:51;;;;;;;18.40;17.10;;;;;;;10.62;73.99;99543.16;5068560;28;20040;-68
2022/12/05 01:34:18;;;;;;;17.07;16.17;;;;;;;10.56;74.21;99556.38;5055520;28;20056;-68
2022/12/05 01:36:46;;;;;;;15.90;14.93;;;;;;;10.63;74.49;99551.25;5074072;28;20047;-68
2022/12/05 01:39:13;;;;;;;16.63;15.73;;;;;;;10.67;74.38;99535.53;5074031;28;20059;-68
2022/12/05 01:41:46;;;;;;;17.13;15.90;;;;;;;10.70;73.57;99553.66;5073105;28;20403;-67
2022/12/05 01:44:12;;;;;;;17.97;16.87;;;;;;;10.71;72.75;99546.94;5057468;28;20053;-67
2022/12/05 01:46:50;;;;;;;16.83;15.93;;;;;;;10.71;72.55;99530.16;5067327;28;20495;-68
2022/12/05 01:49:26;;;;;;;18.07;17.07;;;;;;;10.72;73.17;99536.59;5073382;28;20058;-68
2022/12/05 01:51:57;;;;;;;17.80;16.50;;;;;;;10.63;72.39;99539.22;5073074;28;20052;-68
2022/12/05 01:54:24;;;;;;;15.43;14.70;;;;;;;10.68;73.50;99531.59;5072887;28;20052;-68
2022/12/05 01:56:56;;;;;;;15.70;14.90;;;;;;;10.71;72.81;99549.72;5073688;28;20495;-68
2022/12/05 01:59:25;;;;;;;16.73;15.83;;;;;;;10.63;73.26;99531.72;5070712;28;20059;-68
2022/12/05 02:01:53;;;;;;;16.17;14.98;;;;;;;10.65;73.39;99540.59;5071890;28;20422;-68
2022/12/05 02:04:20;;;;;;;17.20;16.10;;;;;;;10.60;73.07;99540.69;5072983;28;20049;-67
2022/12/05 02:06:47;;;;;;;14.63;13.77;;;;;;;10.70;73.54;99547.22;5054579;28;20048;-68
2022/12/05 02:09:14;;;;;;;14.73;13.93;;;;;;;10.61;73.52;99535.94;5072373;28;20071;-68
2022/12/05 02:11:54;;;;;;;15.87;14.93;;;;;;;10.63;72.61;99540.09;5072692;28;20051;-68
2022/12/05 02:14:20;;;;;;;26.48;25.27;;;;;;;10.68;73.58;99548.34;5072684;28;20146;-68
2022/12/05 02:16:55;;;;;;;16.87;15.47;;;;;;;10.64;72.69;99538.94;5071412;28;20048;-69
2022/12/05 02:19:54;;;;;;;16.37;15.37;;;;;;;10.57;71.91;99549.69;5073069;28;20048;-71
2022/12/05 02:22:37;;;;;;;14.83;14.03;;;;;;;10.57;71.99;99549.69;5068084;28;20040;-71
2022/12/05 02:25:36;;;;;;;15.97;15.07;;;;;;;10.51;71.72;99542.53;5070652;28;20053;-71
2022/12/05 02:28:27;;;;;;;16.63;15.63;;;;;;;10.60;72.64;99537.91;5072916;28;20416;-70
2022/12/05 02:31:01;;;;;;;17.80;16.70;;;;;;;10.61;73.18;99531.19;5069953;28;20056;-70
2022/12/05 02:33:42;;;;;;;17.30;16.27;;;;;;;10.58;72.08;99548.53;5072225;28;20051;-71
2022/12/05 02:36:38;;;;;;;17.20;16.10;;;;;;;10.55;71.41;99532.38;5065042;28;20048;-70
2022/12/05 02:39:17;;;;;;;15.90;15.10;;;;;;;10.74;72.71;99539.91;5071851;28;20070;-69
2022/12/05 02:41:56;;;;;;;15.60;14.70;;;;;;;10.66;71.43;99539.44;5052590;28;20053;-70
2022/12/05 02:44:40;;;;;;;17.37;16.37;;;;;;;10.62;71.71;99544.00;5070214;28;20124;-69
2022/12/05 02:47:08;;;;;;;16.70;15.80;;;;;;;10.63;71.87;99534.50;5054246;28;20067;-68
2022/12/05 02:49:36;;;;;;;14.63;13.93;;;;;;;10.67;71.85;99538.34;5072016;28;20049;-69
2022/12/05 02:52:07;;;;;;;14.73;14.03;;;;;;;10.65;71.75;99542.56;5072338;28;20063;-69
2022/12/05 02:54:38;;;;;;;16.47;15.43;;;;;;;10.48;70.86;99540.34;5072067;28;20048;-70
2022/12/05 02:57:07;;;;;;;28.43;27.03;;;;;;;10.62;71.38;99537.59;5064591;28;20060;-69
2022/12/05 02:59:34;;;;;;;16.80;15.80;;;;;;;10.54;71.18;99541.91;5050541;28;20487;-69
2022/12/05 03:02:01;;;;;;;15.03;14.27;;;;;;;10.61;71.63;99547.94;5071608;28;20044;-69
2022/12/05 03:04:30;;;;;;;15.50;14.60;;;;;;;10.68;71.49;99531.59;5045064;28;20056;-68
2022/12/05 03:07:05;;;;;;;15.13;14.27;;;;;;;10.65;70.54;99534.19;5072177;28;20430;-69
2022/12/05 03:09:45;;;;;;;17.07;15.93;;;;;;;10.61;70.50;99530.34;5051769;28;20064;-69
2022/12/05 03:12:19;;;;;;;15.50;14.60;;;;;;;10.66;70.40;99528.28;5072161;28;20411;-68
2022/12/05 03:14:55;;;;;;;16.13;15.30;;;;;;;10.55;69.91;99539.94;5052909;28;20063;-69
2022/12/05 03:17:25;;;;;;;17.37;16.37;;;;;;;10.46;70.52;99545.41;5072133;28;20450;-72
2022/12/05 03:20:01;;;;;;;15.73;14.90;;;;;;;10.33;71.35;99543.38;5071352;28;20499;-70
2022/12/05 03:22:39;;;;;;;16.57;15.37;;;;;;;10.22;71.70;99548.25;5071802;28;20044;-72
2022/12/05 03:25:08;;;;;;;17.27;16.20;;;;;;;10.07;72.58;99552.09;5054876;28;20491;-69
2022/12/05 03:28:13;;;;;;;17.23;16.37;;;;;;;10.04;73.42;99555.50;5070578;28;20040;-69
2022/12/05 03:30:41;;;;;;;17.97;16.83;;;;;;;9.92;74.02;99552.34;4971779;28;20050;-69
2022/12/05 03:33:18;;;;;;;17.67;16.77;;;;;;;9.82;74.76;99546.91;4975707;28;20050;-69
2022/12/05 03:36:02;;;;;;;18.13;17.23;;;;;;;9.75;74.84;99541.69;5030024;28;20052;-68
2022/12/05 03:38:39;;;;;;;17.90;16.90;;;;;;;9.76;74.92;99546.13;5074721;28;20053;-68
2022/12/05 03:41:13;;;;;;;19.13;17.90;;;;;;;9.85;74.84;99540.72;5074654;28;20051;-68
2022/12/05 03:44:00;;;;;;;17.73;16.90;;;;;;;9.81;74.47;99545.22;5070669;28;20052;-68
2022/12/05 03:46:34;;;;;;;18.00;17.10;;;;;;;9.89;74.96;99525.06;5049459;28;20048;-68
2022/12/05 03:49:12;;;;;;;17.60;16.60;;;;;;;9.92;74.41;99535.63;5056871;28;20056;-68
2022/12/05 03:52:06;;;;;;;18.13;17.10;;;;;;;10.01;74.15;99527.38;5075072;28;20142;-68
2022/12/05 03:54:56;;;;;;;16.13;15.23;;;;;;;10.16;74.18;99536.34;5064611;28;20052;-68
2022/12/05 03:58:01;;;;;;;17.38;16.50;;;;;;;10.18;73.46;99531.28;5074889;28;20056;-69
2022/12/05 04:00:35;;;;;;;14.43;13.73;;;;;;;10.31;73.88;99523.31;5031929;28;20048;-68
2022/12/05 04:03:23;;;;;;;16.00;15.10;;;;;;;10.33;73.43;99519.09;5074570;28;20049;-69
2022/12/05 04:05:56;;;;;;;18.13;17.00;;;;;;;10.46;73.51;99511.06;5076158;28;20147;-68
2022/12/05 04:08:49;;;;;;;16.33;15.43;;;;;;;10.43;72.76;99512.53;5075376;28;20052;-69
2022/12/05 04:11:20;;;;;;;16.93;15.93;;;;;;;10.51;72.62;99514.59;5073671;28;20052;-68
2022/12/05 04:13:53;;;;;;;15.67;14.87;;;;;;;10.57;72.32;99521.75;5074731;28;20051;-69
2022/12/05 04:22:38;;;;;;;15.53;14.73;;;;;;;10.50;71.93;99535.28;5060608;28;20040;-67
2022/12/05 04:28:04;;;;;;;;;;;;;;;10.50;71.72;99532.50;5072538;28;20059;-68
2022/12/05 04:30:38;;;;;;;14.47;13.77;;;;;;;10.49;71.72;99496.50;5066268;28;19931;-68
2022/12/05 04:33:16;;;;;;;15.50;14.50;;;;;;;10.57;71.69;99527.34;5074770;28;20486;-69
2022/12/05 04:35:47;;;;;;;16.60;15.67;;;;;;;10.58;72.28;99526.19;5074027;28;20048;-69
2022/12/05 04:38:23;;;;;;;16.90;15.90;;;;;;;10.32;72.22;99500.69;5073653;28;20049;-69
2022/12/05 04:41:01;;;;;;;16.13;15.33;;;;;;;10.27;73.35;99536.22;5050687;28;20538;-71
2022/12/05 04:43:35;;;;;;;16.63;15.83;;;;;;;10.16;73.79;99516.81;5071275;28;20044;-72
2022/12/05 04:46:05;;;;;;;17.13;16.13;;;;;;;10.02;74.55;99515.13;5056510;28;20059;-71
2022/12/05 04:48:34;;;;;;;;;;;;;;;9.83;75.32;99524.28;5073740;28;20392;-73
2022/12/05 04:51:03;;;;;;;18.33;17.30;;;;;;;10.03;75.53;99514.78;5074179;28;19924;-75
2022/12/05 04:53:32;;;;;;;17.73;16.83;;;;;;;9.92;76.29;99511.34;5074368;28;20044;-74
2022/12/05 04:56:03;;;;;;;16.67;15.87;;;;;;;9.92;76.47;99519.69;5075456;28;20104;-74
2022/12/05 04:58:31;;;;;;;17.70;16.80;;;;;;;9.93;77.02;99526.09;5075088;28;20455;-74
2022/12/05 05:01:23;;;;;;;17.70;16.87;;;;;;;9.96;77.16;99528.28;5073072;28;20589;-75
2022/12/05 05:03:56;;;;;;;17.50;16.70;;;;;;;9.97;77.25;99532.72;5074779;28;20060;-74
2022/12/05 05:06:25;;;;;;;17.37;16.57;;;;;;;10.02;77.12;99527.09;5074343;28;20044;-71
2022/12/05 05:08:55;;;;;;;18.40;17.33;;;;;;;9.94;77.02;99502.66;5073155;28;20060;-69
2022/12/05 05:11:23;;;;;;;16.75;15.95;;;;;;;10.08;77.02;99522.25;5074424;28;20059;-70
2022/12/05 05:13:51;;;;;;;17.73;16.60;;;;;;;10.16;77.54;99502.88;5073324;28;20044;-72
2022/12/05 05:16:29;;;;;;;17.23;16.33;;;;;;;10.25;77.10;99521.69;5070525;28;20048;-73
2022/12/05 05:18:56;;;;;;;17.10;15.87;;;;;;;10.18;77.39;99496.97;5073521;28;20048;-71
2022/12/05 05:21:25;;;;;;;19.17;18.23;;;;;;;10.47;78.06;99513.56;5072172;28;20063;-70
2022/12/05 05:23:52;;;;;;;23.13;22.03;;;;;;;10.46;78.19;99506.34;5073381;28;20063;-71
2022/12/05 05:26:20;;;;;;;15.40;14.70;;;;;;;10.54;77.94;99514.00;5073316;28;20045;-71
2022/12/05 05:28:48;;;;;;;16.30;15.53;;;;;;;10.55;78.16;99498.91;5073103;28;20052;-70
2022/12/05 05:31:16;;;;;;;17.27;16.03;;;;;;;10.65;78.35;99498.72;5072063;28;20052;-70
2022/12/05 05:33:47;;;;;;;17.00;16.00;;;;;;;10.75;79.09;99492.13;5063411;28;20106;-70
2022/12/05 05:36:13;;;;;;;;;;;;;;;10.52;78.38;99481.94;5073577;28;20056;-71
2022/12/05 05:38:43;;;;;;;17.67;16.57;;;;;;;10.77;79.06;99494.59;5072244;28;19929;-72
2022/12/05 05:41:16;;;;;;;15.80;14.95;;;;;;;10.76;77.90;99492.94;5072714;28;20067;-72
2022/12/05 05:43:43;;;;;;;15.90;15.10;;;;;;;10.80;78.51;99488.38;5072400;28;20056;-72
2022/12/05 05:46:11;;;;;;;16.77;15.70;;;;;;;10.79;78.92;99481.97;5054915;28;20187;-72
2022/12/05 05:48:39;;;;;;;17.13;15.87;;;;;;;10.77;79.10;99475.03;5074162;28;20079;-72
2022/12/05 05:51:07;;;;;;;17.07;16.07;;;;;;;10.81;78.91;99476.94;5072007;28;20427;-70
2022/12/05 05:53:34;;;;;;;17.80;16.60;;;;;;;10.85;79.04;99477.13;5072234;28;20041;-69
2022/12/05 05:56:24;;;;;;;16.57;15.53;;;;;;;10.77;78.75;99475.91;5055417;28;20418;-70
2022/12/05 05:58:59;;;;;;;17.50;16.40;;;;;;;10.83;79.45;99476.59;5071522;28;20056;-70
2022/12/05 06:01:27;;;;;;;17.77;16.67;;;;;;;10.88;79.05;99482.09;5069275;28;20050;-71
2022/12/05 06:03:54;;;;;;;16.87;15.93;;;;;;;10.90;79.32;99493.78;5071281;28;20487;-72
2022/12/05 06:06:21;;;;;;;16.17;15.37;;;;;;;10.85;78.67;99483.53;5072462;28;20087;-72
2022/12/05 06:08:48;;;;;;;16.90;15.90;;;;;;;10.76;78.53;99482.59;5072475;28;20045;-72
2022/12/05 06:11:18;;;;;;;16.73;15.93;;;;;;;10.87;77.81;99484.06;5070648;28;20048;-72
2022/12/05 06:13:52;;;;;;;16.20;15.40;;;;;;;10.81;77.43;99478.91;5052408;28;20052;-71
2022/12/05 06:16:19;;;;;;;18.20;17.10;;;;;;;10.86;77.74;99478.78;5063382;28;20127;-71
2022/12/05 06:18:48;;;;;;;17.00;16.13;;;;;;;10.85;77.49;99475.16;5070025;28;20048;-70
2022/12/05 06:21:15;;;;;;;16.87;16.07;;;;;;;10.99;77.03;99486.34;5070771;28;20040;-71
2022/12/05 06:23:42;;;;;;;15.90;15.20;;;;;;;10.99;77.63;99475.19;5071334;28;20051;-70
2022/12/05 06:26:12;;;;;;;16.27;15.37;;;;;;;11.08;77.65;99476.13;5071285;28;20045;-74
2022/12/05 06:28:39;;;;;;;17.10;16.20;;;;;;;11.10;77.68;99478.59;5071592;28;20051;-67
2022/12/05 06:31:08;;;;;;;16.40;15.60;;;;;;;11.15;78.16;99479.31;5050529;28;20067;-65
2022/12/05 06:33:36;;;;;;;16.27;15.48;;;;;;;11.13;77.14;99480.75;5072006;28;20040;-70
2022/12/05 06:36:23;;;;;;;15.80;15.00;;;;;;;11.11;76.51;99483.88;5070576;28;20096;-68
2022/12/05 06:38:50;;;;;;;16.40;15.50;;;;;;;11.19;77.13;99490.72;5070969;28;20063;-70
2022/12/05 06:41:18;;;;;;;15.90;15.20;;;;;;;11.10;75.88;99481.38;5071513;28;20495;-66
2022/12/05 06:43:45;;;;;;;16.27;15.47;;;;;;;11.02;74.95;99488.53;5071705;28;20410;-65
2022/12/05 06:46:14;;;;;;;15.80;15.00;;;;;;;10.93;73.57;99470.81;5066189;28;20045;-64
2022/12/05 06:48:41;;;;;;;15.77;15.00;;;;;;;11.01;73.56;99486.88;5071183;28;20503;-67
2022/12/05 06:51:10;;;;;;;15.13;14.43;;;;;;;11.06;72.59;99485.94;5071093;28;20040;-64
2022/12/05 06:53:38;;;;;;;15.87;15.10;;;;;;;11.04;72.91;99486.25;5072121;28;20047;-65
2022/12/05 06:56:10;;;;;;;15.80;14.90;;;;;;;11.01;72.13;99484.09;5071516;28;20495;-74
2022/12/05 06:58:37;;;;;;;15.63;14.83;;;;;;;11.12;72.96;99479.94;5073264;28;20080;-69
2022/12/05 07:03:50;;;;;;;16.60;15.70;;;;;;;11.17;73.44;99492.16;5069073;28;20135;-64
2022/12/05 07:06:17;;;;;;;16.10;15.30;;;;;;;11.22;73.57;99498.47;5071164;28;20059;-63
2022/12/05 07:08:43;;;;;;;17.53;16.63;;;;;;;11.05;72.22;99489.88;5049915;28;20056;-64
2022/12/05 07:11:10;;;;;;;16.60;15.37;;;;;;;11.06;72.88;99492.34;5071113;28;20416;-65
2022/12/05 07:13:37;;;;;;;27.07;25.77;;;;;;;11.07;72.33;99504.34;5069345;28;20063;-64
2022/12/05 07:16:05;;;;;;;17.57;16.57;;;;;;;11.03;72.05;99498.56;5054020;28;20045;-64
2022/12/05 07:18:34;;;;;;;32.60;30.97;;;;;;;11.25;73.70;99491.44;5070557;28;20537;-65
2022/12/05 07:21:05;;;;;;;16.30;15.60;;;;;;;11.23;72.92;99502.09;5068899;28;20045;-64
2022/12/05 07:23:44;;;;;;;18.23;17.07;;;;;;;11.10;71.32;99503.72;5070693;28;20040;-63
2022/12/05 07:26:14;;;;;;;32.10;30.70;;;;;;;11.27;73.21;99503.13;5070959;28;20052;-62
2022/12/05 07:28:41;;;;;;;17.65;16.42;;;;;;;11.25;72.33;99500.66;5071749;28;20056;-64
2022/12/05 07:31:11;;;;;;;17.23;16.33;;;;;;;11.19;72.17;99495.47;5057980;28;20064;-65
2022/12/05 07:33:38;;;;;;;30.13;28.83;;;;;;;11.20;71.74;99523.09;5065733;28;20049;-64
2022/12/05 07:36:08;;;;;;;31.40;29.87;;;;;;;11.24;71.99;99498.16;5070862;28;20067;-64
2022/12/05 07:38:36;;;;;;;31.90;30.37;;;;;;;11.10;71.00;99498.97;5051517;28;20048;-65
2022/12/05 07:41:07;;;;;;;26.00;24.90;;;;;;;11.15;71.22;99515.66;5060143;28;20048;-64
2022/12/05 07:43:40;;;;;;;18.27;17.27;;;;;;;11.12;71.55;99512.66;5064862;28;20525;-64
2022/12/05 07:46:10;;;;;;;19.00;17.90;;;;;;;10.93;71.46;99523.91;5067706;28;20067;-64
2022/12/05 07:48:37;;;;;;;26.27;25.15;;;;;;;10.93;72.39;99509.94;5070871;28;20052;-70
2022/12/05 07:51:06;;;;;;;18.10;17.20;;;;;;;10.94;73.58;99511.59;5066633;28;20060;-68
2022/12/05 07:53:33;;;;;;;16.90;16.10;;;;;;;10.98;72.36;99509.84;5069421;28;20041;-67
2022/12/05 07:56:01;;;;;;;17.13;16.33;;;;;;;10.97;72.23;99526.91;5069056;28;20051;-64
2022/12/05 07:58:29;;;;;;;18.07;17.07;;;;;;;11.01;72.75;99511.16;5069703;28;20621;-64
2022/12/05 08:00:57;;;;;;;18.40;17.40;;;;;;;10.78;72.79;99487.88;5068078;28;20403;-65
2022/12/05 08:03:23;;;;;;;21.40;20.37;;;;;;;10.99;72.91;99517.06;5068188;28;20119;-64
2022/12/05 08:05:50;;;;;;;18.40;17.50;;;;;;;11.08;73.42;99523.63;5066879;28;20055;-64
2022/12/05 08:08:17;;;;;;;19.03;17.97;;;;;;;10.95;73.27;99513.25;5067089;28;20426;-64
2022/12/05 08:10:44;;;;;;;19.10;18.10;;;;;;;11.03;73.77;99526.50;5066905;28;20051;-63
2022/12/05 08:13:12;;;;;;;18.90;17.90;;;;;;;10.87;73.23;99502.78;5067462;28;20053;-64
2022/12/05 08:15:39;;;;;;;18.93;17.93;;;;;;;10.76;72.70;99530.06;5073936;28;20051;-65
2022/12/05 08:18:06;;;;;;;17.97;17.07;;;;;;;10.85;72.91;99531.03;5074139;28;20060;-70
2022/12/05 08:20:33;;;;;;;18.47;17.57;;;;;;;10.84;73.24;99506.22;5056275;28;20052;-70
2022/12/05 08:22:59;;;;;;;28.23;26.93;;;;;;;10.93;72.83;99535.06;5071325;28;20410;-71
2022/12/05 08:25:26;;;;;;;18.00;17.10;;;;;;;10.81;72.18;99540.34;5074863;28;20060;-72
2022/12/05 08:27:53;;;;;;;30.77;29.37;;;;;;;10.81;72.96;99509.63;5074662;28;20048;-71
2022/12/05 08:30:20;;;;;;;20.30;19.40;;;;;;;10.96;72.16;99533.63;5074890;28;20067;-69
2022/12/05 08:32:46;;;;;;;31.53;29.90;;;;;;;10.97;72.70;99530.50;5050316;28;20049;-72
2022/12/05 08:35:13;;;;;;;18.97;17.87;;;;;;;10.97;71.68;99536.09;5074393;28;20052;-71
2022/12/05 08:37:40;;;;;;;20.20;19.30;;;;;;;10.93;71.62;99532.28;5074309;28;20052;-71
2022/12/05 08:40:07;;;;;;;17.57;16.10;;;;;;;11.12;72.22;99546.19;5073992;28;20053;-71
2022/12/05 08:42:34;;;;;;;17.57;16.70;;;;;;;11.11;72.41;99550.94;5045400;28;20499;-73
2022/12/05 08:45:01;;;;;;;17.67;16.77;;;;;;;11.05;71.50;99546.59;5070641;28;20552;-77
2022/12/05 08:47:29;;;;;;;18.97;17.97;;;;;;;11.09;71.95;99553.22;5048634;28;20059;-68
2022/12/05 08:49:58;;;;;;;18.23;17.33;;;;;;;11.12;72.20;99557.34;5071928;28;20044;-65
2022/12/05 08:52:25;;;;;;;18.40;17.50;;;;;;;11.00;70.94;99546.66;5070797;28;20095;-64
2022/12/05 08:54:52;;;;;;;17.63;16.73;;;;;;;11.02;71.41;99558.38;5070582;28;20052;-65
2022/12/05 08:57:18;;;;;;;21.87;20.77;;;;;;;11.02;70.95;99550.00;5069721;28;20040;-64
2022/12/05 08:59:45;;;;;;;19.00;18.00;;;;;;;11.11;72.20;99550.94;5060484;28;20051;-65
2022/12/05 09:02:12;;;;;;;20.43;19.13;;;;;;;10.89;71.84;99548.00;5052981;28;20182;-64
2022/12/05 09:04:39;;;;;;;20.13;19.03;;;;;;;10.38;73.67;99557.25;5060821;28;20048;-64
2022/12/05 09:07:07;;;;;;;21.37;20.30;;;;;;;10.25;74.12;99541.22;5068476;28;20052;-65
2022/12/05 09:09:33;;;;;;;20.50;19.50;;;;;;;10.28;73.95;99565.78;5066666;28;20059;-64
2022/12/05 09:12:00;;;;;;;20.40;19.40;;;;;;;10.36;72.69;99557.56;5071972;28;20048;-65
2022/12/05 09:14:31;;;;;;;25.77;24.57;;;;;;;10.42;72.95;99550.75;5068232;28;20055;-65
2022/12/05 09:17:00;;;;;;;19.30;18.30;;;;;;;10.59;72.74;99566.94;5059867;28;20061;-64
2022/12/05 09:19:27;;;;;;;19.30;18.30;;;;;;;10.80;72.98;99550.69;5066526;28;20525;-65
2022/12/05 09:21:55;;;;;;;18.77;17.87;;;;;;;10.95;73.24;99546.78;5062319;28;20442;-64
2022/12/05 09:24:23;;;;;;;19.60;18.60;;;;;;;11.04;71.87;99560.84;5060078;28;20411;-65
2022/12/05 09:26:50;;;;;;;19.20;18.30;;;;;;;11.15;72.71;99540.81;5066346;28;21984;-66
2022/12/05 09:29:17;;;;;;;19.20;18.20;;;;;;;11.21;71.65;99563.03;5064902;28;20407;-64
2022/12/05 09:31:46;;;;;;;26.60;25.40;;;;;;;11.23;70.39;99557.97;5058874;28;20087;-65
2022/12/05 09:34:14;;;;;;;19.90;18.85;;;;;;;11.25;69.93;99561.31;5068631;28;20044;-65
2022/12/05 09:36:42;;;;;;;34.93;33.47;;;;;;;11.27;69.10;99564.59;5057768;28;20139;-65
2022/12/05 09:39:09;;;;;;;20.40;19.30;;;;;;;11.35;69.69;99570.31;5061612;28;20519;-64
2022/12/05 09:42:03;;;;;;;19.63;18.73;;;;;;;11.61;70.40;99565.03;5063599;28;20051;-65
2022/12/05 09:44:46;;;;;;;18.30;17.43;;;;;;;11.78;71.64;99583.13;5053721;28;20052;-65
2022/12/05 09:47:22;;;;;;;19.37;18.47;;;;;;;11.87;69.83;99584.09;5068130;28;20052;-65
2022/12/05 09:50:01;;;;;;;33.83;32.20;;;;;;;11.83;68.41;99571.84;5063401;28;20048;-65
2022/12/05 09:52:36;;;;;;;27.13;25.87;;;;;;;11.85;69.31;99562.03;5062052;28;20142;-65
2022/12/05 09:55:15;;;;;;;26.27;25.07;;;;;;;12.00;68.60;99565.59;5049511;28;20067;-65
2022/12/05 09:57:55;;;;;;;18.97;18.07;;;;;;;12.16;68.50;99572.53;5056118;28;20078;-64
2022/12/05 10:00:22;;;;;;;19.58;18.67;;;;;;;12.34;69.71;99559.50;5060717;28;20056;-64
2022/12/05 10:03:08;;;;;;;20.30;19.37;;;;;;;12.37;68.04;99581.28;5065337;28;20040;-65
2022/12/05 10:05:51;;;;;;;18.43;17.53;;;;;;;12.49;68.67;99580.72;5058285;28;20067;-64
2022/12/05 10:08:21;;;;;;;18.10;17.20;;;;;;;12.34;66.71;99593.09;5068747;28;20049;-65
2022/12/05 10:11:26;;;;;;;17.88;17.08;;;;;;;12.37;67.83;99586.88;5056346;28;20053;-64
2022/12/05 10:14:07;;;;;;;27.97;26.73;;;;;;;12.26;67.57;99575.09;5062206;28;20048;-65
2022/12/05 10:16:57;;;;;;;18.30;17.30;;;;;;;12.23;67.58;99580.50;5044524;28;20048;-65
2022/12/05 10:19:30;;;;;;;25.67;24.35;;;;;;;12.25;68.54;99590.22;5061988;28;20051;-65
2022/12/05 10:22:03;;;;;;;19.57;18.57;;;;;;;12.18;66.85;99583.41;5047632;28;20431;-66
2022/12/05 10:24:42;;;;;;;24.97;23.77;;;;;;;12.37;68.95;99592.47;5062636;28;20052;-65
2022/12/05 10:27:18;;;;;;;18.63;17.73;;;;;;;12.35;66.99;99579.94;5056472;28;20053;-64
2022/12/05 10:30:12;;;;;;;18.60;17.60;;;;;;;12.39;67.19;99579.00;5066314;28;20681;-65
2022/12/05 10:32:45;;;;;;;18.03;17.13;;;;;;;12.33;66.93;99608.25;5059160;28;20056;-65
2022/12/05 10:35:21;;;;;;;24.00;22.80;;;;;;;12.44;67.76;99597.63;5068516;28;20055;-64
2022/12/05 10:37:52;;;;;;;21.13;20.10;;;;;;;12.38;67.52;99582.94;5060850;28;20053;-65
2022/12/05 10:40:19;;;;;;;19.47;18.37;;;;;;;12.16;66.33;99583.72;5058984;28;20079;-65
2022/12/05 10:42:48;;;;;;;18.63;17.63;;;;;;;12.22;67.28;99574.06;5066224;28;20058;-64
2022/12/05 10:45:19;;;;;;;19.80;18.80;;;;;;;12.16;66.24;99580.09;5055915;28;20045;-67
2022/12/05 10:47:47;;;;;;;26.27;24.97;;;;;;;12.13;66.61;99581.53;5054590;28;20067;-65
2022/12/05 10:50:37;;;;;;;19.57;18.57;;;;;;;12.20;67.06;99581.13;5065891;28;20048;-64
2022/12/05 10:53:05;;;;;;;19.30;18.27;;;;;;;12.10;66.26;99559.78;5062770;28;20048;-65
2022/12/05 10:55:39;;;;;;;21.10;19.80;;;;;;;12.07;66.80;99566.88;5058572;28;20059;-65
2022/12/05 10:58:15;;;;;;;23.17;21.93;;;;;;;12.13;66.77;99575.94;5056617;28;20091;-65
2022/12/05 11:00:50;;;;;;;20.50;19.50;;;;;;;12.32;68.05;99561.81;5060750;28;20131;-65
2022/12/05 11:03:25;;;;;;;19.23;18.27;;;;;;;12.14;65.96;99585.19;5061909;28;20103;-65
2022/12/05 11:05:55;;;;;;;26.50;25.27;;;;;;;12.22;67.59;99560.06;5059819;28;20056;-65
2022/12/05 11:08:25;;;;;;;19.77;18.77;;;;;;;12.27;67.97;99561.91;5062752;28;20140;-65
2022/12/05 11:11:22;;;;;;;19.15;18.15;;;;;;;12.23;67.34;99555.28;5055564;28;20102;-66
2022/12/05 11:14:03;;;;;;;18.80;17.90;;;;;;;12.25;67.46;99555.81;5052904;28;20040;-65
2022/12/05 11:16:32;;;;;;;32.30;30.80;;;;;;;12.12;67.25;99573.47;5057140;28;20059;-64
2022/12/05 11:19:23;;;;;;;18.93;17.93;;;;;;;12.11;67.52;99543.84;5061040;28;20393;-64
2022/12/05 11:21:50;;;;;;;19.30;18.30;;;;;;;12.18;68.73;99555.44;5050908;28;20278;-65
2022/12/05 11:24:37;;;;;;;19.53;18.43;;;;;;;12.11;68.05;99553.06;5038769;28;20094;-65
2022/12/05 11:27:16;;;;;;;19.87;18.87;;;;;;;12.12;67.59;99546.31;5057818;28;20048;-64
2022/12/05 11:29:54;;;;;;;26.43;25.17;;;;;;;12.28;68.07;99541.19;5062054;28;20498;-65
2022/12/05 11:32:26;;;;;;;31.07;29.43;;;;;;;12.44;69.31;99525.66;5062634;28;20289;-64
2022/12/05 11:35:11;;;;;;;18.93;17.83;;;;;;;12.47;68.19;99547.44;5061144;28;20056;-64
2022/12/05 11:37:57;;;;;;;19.57;18.47;;;;;;;12.38;67.43;99535.34;5059092;28;20048;-64
2022/12/05 11:40:58;;;;;;;18.77;17.87;;;;;;;12.41;68.27;99534.72;5038037;28;20087;-64
2022/12/05 11:43:46;;;;;;;20.10;18.80;;;;;;;12.41;68.61;99545.91;5058154;28;20048;-64
2022/12/05 11:46:35;;;;;;;18.47;17.43;;;;;;;12.45;69.80;99538.53;5058626;28;20055;-65
2022/12/05 11:49:31;;;;;;;19.20;18.20;;;;;;;12.40;67.98;99547.03;5039373;28;20122;-64
2022/12/05 11:52:12;;;;;;;19.50;18.40;;;;;;;12.36;67.70;99545.19;5031589;28;20061;-65
2022/12/05 11:54:57;;;;;;;19.00;18.00;;;;;;;12.40;69.30;99507.84;5060409;28;20067;-65